sensor_id;sensor_type;location;lat;lon;timestamp;temperature;humidity
18839;DHT22;9548;56.920;14.804;2023-03-02T00:00:32;-3.10;99.90
18839;DHT22;9548;56.920;14.804;2023-03-02T00:03:00;-3.10;99.90
18839;DHT22;9548;56.920;14.804;2023-03-02T00:05:27;-3.10;99.90
18839;DHT22;9548;56.920;14.804;2023-03-02T00:07:56;-3.10;99.90
18839;DHT22;9548;56.920;14.804;2023-03-02T00:10:24;-3.20;99.90
18839;DHT22;9548;56.920;14.804;2023-03-02T00:12:51;-3.10;99.90
18839;DHT22;9548;56.920;14.804;2023-03-02T00:15:19;-3.10;99.90
18839;DHT22;9548;56.920;14.804;2023-03-02T00:17:46;-3.20;99.90
18839;DHT22;9548;56.920;14.804;2023-03-02T00:20:13;-3.10;99.90
18839;DHT22;9548;56.920;14.804;2023-03-02T00:22:41;-3.20;99.90
18839;DHT22;9548;56.920;14.804;2023-03-02T00:25:09;-3.20;99.90
18839;DHT22;9548;56.920;14.804;2023-03-02T00:27:38;-3.20;99.90
18839;DHT22;9548;56.920;14.804;2023-03-02T00:30:07;-3.20;99.90
18839;DHT22;9548;56.920;14.804;2023-03-02T00:32:34;-3.20;99.90
18839;DHT22;9548;56.920;14.804;2023-03-02T00:35:01;-3.30;99.90
18839;DHT22;9548;56.920;14.804;2023-03-02T00:37:28;-3.30;99.90
18839;DHT22;9548;56.920;14.804;2023-03-02T00:39:55;-3.30;99.90
18839;DHT22;9548;56.920;14.804;2023-03-02T00:42:22;-3.30;99.90
18839;DHT22;9548;56.920;14.804;2023-03-02T00:44:51;-3.30;99.90
18839;DHT22;9548;56.920;14.804;2023-03-02T00:47:18;-3.30;99.90
18839;DHT22;9548;56.920;14.804;2023-03-02T00:49:44;-3.30;99.90
18839;DHT22;9548;56.920;14.804;2023-03-02T00:52:14;-3.40;99.90
18839;DHT22;9548;56.920;14.804;2023-03-02T00:54:41;-3.40;99.90
18839;DHT22;9548;56.920;14.804;2023-03-02T00:57:08;-3.40;99.90
18839;DHT22;9548;56.920;14.804;2023-03-02T00:59:36;-3.50;99.90
18839;DHT22;9548;56.920;14.804;2023-03-02T01:02:05;-3.50;99.90
18839;DHT22;9548;56.920;14.804;2023-03-02T01:04:34;-3.50;99.90
18839;DHT22;9548;56.920;14.804;2023-03-02T01:07:03;-3.50;99.90
18839;DHT22;9548;56.920;14.804;2023-03-02T01:09:31;-3.50;99.90
18839;DHT22;9548;56.920;14.804;2023-03-02T01:11:58;-3.50;99.90
18839;DHT22;9548;56.920;14.804;2023-03-02T01:14:25;-3.60;99.90
18839;DHT22;9548;56.920;14.804;2023-03-02T01:16:52;-3.50;99.90
18839;DHT22;9548;56.920;14.804;2023-03-02T01:19:20;-3.50;99.90
18839;DHT22;9548;56.920;14.804;2023-03-02T01:21:49;-3.60;99.90
18839;DHT22;9548;56.920;14.804;2023-03-02T01:24:16;-3.60;99.90
18839;DHT22;9548;56.920;14.804;2023-03-02T01:26:43;-3.60;99.90
18839;DHT22;9548;56.920;14.804;2023-03-02T01:29:09;-3.60;99.90
18839;DHT22;9548;56.920;14.804;2023-03-02T01:31:37;-3.60;99.90
18839;DHT22;9548;56.920;14.804;2023-03-02T01:34:04;-3.60;99.90
18839;DHT22;9548;56.920;14.804;2023-03-02T01:36:32;-3.60;99.90
18839;DHT22;9548;56.920;14.804;2023-03-02T01:38:59;-3.60;99.90
18839;DHT22;9548;56.920;14.804;2023-03-02T01:41:26;-3.60;99.90
18839;DHT22;9548;56.920;14.804;2023-03-02T01:43:53;-3.60;99.90
18839;DHT22;9548;56.920;14.804;2023-03-02T01:46:22;-3.60;99.90
18839;DHT22;9548;56.920;14.804;2023-03-02T01:48:53;-3.50;99.90
18839;DHT22;9548;56.920;14.804;2023-03-02T01:51:24;-3.30;99.90
18839;DHT22;9548;56.920;14.804;2023-03-02T01:53:55;-3.30;99.90
18839;DHT22;9548;56.920;14.804;2023-03-02T01:56:27;-3.30;99.90
18839;DHT22;9548;56.920;14.804;2023-03-02T01:58:59;-3.30;99.90
18839;DHT22;9548;56.920;14.804;2023-03-02T02:01:27;-3.30;99.90
18839;DHT22;9548;56.920;14.804;2023-03-02T02:03:55;-3.20;99.90
18839;DHT22;9548;56.920;14.804;2023-03-02T02:06:24;-3.20;99.90
18839;DHT22;9548;56.920;14.804;2023-03-02T02:08:55;-3.20;99.90
18839;DHT22;9548;56.920;14.804;2023-03-02T02:11:22;-3.30;99.90
18839;DHT22;9548;56.920;14.804;2023-03-02T02:13:51;-3.30;99.90
18839;DHT22;9548;56.920;14.804;2023-03-02T02:16:19;-3.40;99.90
18839;DHT22;9548;56.920;14.804;2023-03-02T02:18:46;-3.40;99.90
18839;DHT22;9548;56.920;14.804;2023-03-02T02:21:13;-3.40;99.90
18839;DHT22;9548;56.920;14.804;2023-03-02T02:23:46;-3.40;99.90
18839;DHT22;9548;56.920;14.804;2023-03-02T02:26:23;-3.50;99.90
18839;DHT22;9548;56.920;14.804;2023-03-02T02:28:55;-3.50;99.90
18839;DHT22;9548;56.920;14.804;2023-03-02T02:31:28;-3.50;99.90
18839;DHT22;9548;56.920;14.804;2023-03-02T02:33:59;-3.60;99.90
18839;DHT22;9548;56.920;14.804;2023-03-02T02:36:31;-3.60;99.90
18839;DHT22;9548;56.920;14.804;2023-03-02T02:39:02;-3.70;99.90
18839;DHT22;9548;56.920;14.804;2023-03-02T02:41:34;-3.70;99.90
18839;DHT22;9548;56.920;14.804;2023-03-02T02:44:02;-3.70;99.90
18839;DHT22;9548;56.920;14.804;2023-03-02T02:46:29;-3.70;99.90
18839;DHT22;9548;56.920;14.804;2023-03-02T02:48:57;-3.80;99.90
18839;DHT22;9548;56.920;14.804;2023-03-02T02:51:26;-3.80;99.90
18839;DHT22;9548;56.920;14.804;2023-03-02T02:53:56;-3.80;99.90
18839;DHT22;9548;56.920;14.804;2023-03-02T02:56:26;-3.90;99.90
18839;DHT22;9548;56.920;14.804;2023-03-02T02:58:56;-3.90;99.90
18839;DHT22;9548;56.920;14.804;2023-03-02T03:01:25;-3.90;99.90
18839;DHT22;9548;56.920;14.804;2023-03-02T03:03:53;-3.90;99.90
18839;DHT22;9548;56.920;14.804;2023-03-02T03:06:23;-4.00;99.90
18839;DHT22;9548;56.920;14.804;2023-03-02T03:08:59;-3.90;99.90
18839;DHT22;9548;56.920;14.804;2023-03-02T03:11:28;-4.00;99.90
18839;DHT22;9548;56.920;14.804;2023-03-02T03:14:03;-4.00;99.90
18839;DHT22;9548;56.920;14.804;2023-03-02T03:16:32;-4.00;99.90
18839;DHT22;9548;56.920;14.804;2023-03-02T03:19:05;-4.00;99.90
18839;DHT22;9548;56.920;14.804;2023-03-02T03:21:33;-4.00;99.90
18839;DHT22;9548;56.920;14.804;2023-03-02T03:24:00;-4.00;99.90
18839;DHT22;9548;56.920;14.804;2023-03-02T03:26:27;-4.10;99.90
18839;DHT22;9548;56.920;14.804;2023-03-02T03:28:53;-4.10;99.90
18839;DHT22;9548;56.920;14.804;2023-03-02T03:31:24;-4.10;99.90
18839;DHT22;9548;56.920;14.804;2023-03-02T03:33:52;-4.10;99.90
18839;DHT22;9548;56.920;14.804;2023-03-02T03:36:19;-4.10;99.90
18839;DHT22;9548;56.920;14.804;2023-03-02T03:38:46;-4.00;99.90
18839;DHT22;9548;56.920;14.804;2023-03-02T03:41:14;-4.10;99.90
18839;DHT22;9548;56.920;14.804;2023-03-02T03:43:41;-4.00;99.90
18839;DHT22;9548;56.920;14.804;2023-03-02T03:46:08;-4.00;99.90
18839;DHT22;9548;56.920;14.804;2023-03-02T03:48:36;-4.10;99.90
18839;DHT22;9548;56.920;14.804;2023-03-02T03:51:04;-4.10;99.90
18839;DHT22;9548;56.920;14.804;2023-03-02T03:53:31;-4.10;99.90
18839;DHT22;9548;56.920;14.804;2023-03-02T03:55:58;-4.10;99.90
18839;DHT22;9548;56.920;14.804;2023-03-02T03:58:26;-4.10;99.90
18839;DHT22;9548;56.920;14.804;2023-03-02T04:00:53;-4.20;99.90
18839;DHT22;9548;56.920;14.804;2023-03-02T04:03:21;-4.10;99.90
18839;DHT22;9548;56.920;14.804;2023-03-02T04:05:49;-4.00;99.90
18839;DHT22;9548;56.920;14.804;2023-03-02T04:08:17;-4.00;99.90
18839;DHT22;9548;56.920;14.804;2023-03-02T04:10:44;-4.10;99.90
18839;DHT22;9548;56.920;14.804;2023-03-02T04:13:11;-4.10;99.90
18839;DHT22;9548;56.920;14.804;2023-03-02T04:15:38;-4.10;99.90
18839;DHT22;9548;56.920;14.804;2023-03-02T04:18:06;-4.00;99.90
18839;DHT22;9548;56.920;14.804;2023-03-02T04:20:33;-4.00;99.90
18839;DHT22;9548;56.920;14.804;2023-03-02T04:23:01;-4.10;99.90
18839;DHT22;9548;56.920;14.804;2023-03-02T04:25:29;-4.10;99.90
18839;DHT22;9548;56.920;14.804;2023-03-02T04:27:56;-4.20;99.90
18839;DHT22;9548;56.920;14.804;2023-03-02T04:30:25;-4.20;99.90
18839;DHT22;9548;56.920;14.804;2023-03-02T04:32:52;-4.20;99.90
18839;DHT22;9548;56.920;14.804;2023-03-02T04:35:22;-4.10;99.90
18839;DHT22;9548;56.920;14.804;2023-03-02T04:37:49;-4.10;99.90
18839;DHT22;9548;56.920;14.804;2023-03-02T04:40:18;-4.10;99.90
18839;DHT22;9548;56.920;14.804;2023-03-02T04:42:45;-4.00;99.90
18839;DHT22;9548;56.920;14.804;2023-03-02T04:45:12;-4.00;99.90
18839;DHT22;9548;56.920;14.804;2023-03-02T04:47:40;-4.10;99.90
18839;DHT22;9548;56.920;14.804;2023-03-02T04:50:08;-4.20;99.90
18839;DHT22;9548;56.920;14.804;2023-03-02T04:52:36;-4.20;99.90
18839;DHT22;9548;56.920;14.804;2023-03-02T04:55:04;-4.30;99.90
18839;DHT22;9548;56.920;14.804;2023-03-02T04:57:32;-4.30;99.90
18839;DHT22;9548;56.920;14.804;2023-03-02T04:59:59;-4.40;99.90
18839;DHT22;9548;56.920;14.804;2023-03-02T05:02:26;-4.40;99.90
18839;DHT22;9548;56.920;14.804;2023-03-02T05:04:53;-4.40;99.90
18839;DHT22;9548;56.920;14.804;2023-03-02T05:07:20;-4.40;99.90
18839;DHT22;9548;56.920;14.804;2023-03-02T05:09:47;-4.40;99.90
18839;DHT22;9548;56.920;14.804;2023-03-02T05:12:13;-4.40;99.90
18839;DHT22;9548;56.920;14.804;2023-03-02T05:14:45;-4.50;99.90
18839;DHT22;9548;56.920;14.804;2023-03-02T05:17:12;-4.50;99.90
18839;DHT22;9548;56.920;14.804;2023-03-02T05:19:38;-4.50;99.90
18839;DHT22;9548;56.920;14.804;2023-03-02T05:22:05;-4.60;99.90
18839;DHT22;9548;56.920;14.804;2023-03-02T05:24:32;-4.60;99.90
18839;DHT22;9548;56.920;14.804;2023-03-02T05:27:00;-4.60;99.90
18839;DHT22;9548;56.920;14.804;2023-03-02T05:29:27;-4.60;99.90
18839;DHT22;9548;56.920;14.804;2023-03-02T05:31:55;-4.60;99.90
18839;DHT22;9548;56.920;14.804;2023-03-02T05:34:22;-4.60;99.90
18839;DHT22;9548;56.920;14.804;2023-03-02T05:36:49;-4.60;99.90
18839;DHT22;9548;56.920;14.804;2023-03-02T05:39:16;-4.60;99.90
18839;DHT22;9548;56.920;14.804;2023-03-02T05:41:42;-4.60;99.90
18839;DHT22;9548;56.920;14.804;2023-03-02T05:44:09;-4.60;99.90
18839;DHT22;9548;56.920;14.804;2023-03-02T05:46:37;-4.60;99.90
18839;DHT22;9548;56.920;14.804;2023-03-02T05:49:05;-4.60;99.90
18839;DHT22;9548;56.920;14.804;2023-03-02T05:51:32;-4.60;99.90
18839;DHT22;9548;56.920;14.804;2023-03-02T05:53:59;-4.60;99.90
18839;DHT22;9548;56.920;14.804;2023-03-02T05:56:26;-4.70;99.90
18839;DHT22;9548;56.920;14.804;2023-03-02T05:58:53;-4.70;99.90
18839;DHT22;9548;56.920;14.804;2023-03-02T06:01:20;-4.70;99.90
18839;DHT22;9548;56.920;14.804;2023-03-02T06:03:47;-4.70;99.90
18839;DHT22;9548;56.920;14.804;2023-03-02T06:06:15;-4.70;99.90
18839;DHT22;9548;56.920;14.804;2023-03-02T06:08:43;-4.60;99.90
18839;DHT22;9548;56.920;14.804;2023-03-02T06:11:10;-4.60;99.90
18839;DHT22;9548;56.920;14.804;2023-03-02T06:13:38;-4.60;99.90
18839;DHT22;9548;56.920;14.804;2023-03-02T06:16:05;-4.60;99.90
18839;DHT22;9548;56.920;14.804;2023-03-02T06:18:32;-4.50;99.90
18839;DHT22;9548;56.920;14.804;2023-03-02T06:20:59;-4.50;99.90
18839;DHT22;9548;56.920;14.804;2023-03-02T06:23:28;-4.50;99.90
18839;DHT22;9548;56.920;14.804;2023-03-02T06:25:55;-4.40;99.90
18839;DHT22;9548;56.920;14.804;2023-03-02T06:28:22;-4.50;99.90
18839;DHT22;9548;56.920;14.804;2023-03-02T06:30:50;-4.40;99.90
18839;DHT22;9548;56.920;14.804;2023-03-02T06:33:18;-4.40;99.90
18839;DHT22;9548;56.920;14.804;2023-03-02T06:35:45;-4.30;99.90
18839;DHT22;9548;56.920;14.804;2023-03-02T06:38:13;-4.30;99.90
18839;DHT22;9548;56.920;14.804;2023-03-02T06:40:41;-4.20;99.90
18839;DHT22;9548;56.920;14.804;2023-03-02T06:43:08;-4.20;99.90
18839;DHT22;9548;56.920;14.804;2023-03-02T06:45:35;-4.10;99.90
18839;DHT22;9548;56.920;14.804;2023-03-02T06:48:02;-4.10;99.90
18839;DHT22;9548;56.920;14.804;2023-03-02T06:50:29;-4.00;99.90
18839;DHT22;9548;56.920;14.804;2023-03-02T06:52:56;-4.00;99.90
18839;DHT22;9548;56.920;14.804;2023-03-02T06:55:23;-3.90;99.90
18839;DHT22;9548;56.920;14.804;2023-03-02T06:57:52;-3.80;99.90
18839;DHT22;9548;56.920;14.804;2023-03-02T07:00:19;-3.80;99.90
18839;DHT22;9548;56.920;14.804;2023-03-02T07:02:53;-3.70;99.90
18839;DHT22;9548;56.920;14.804;2023-03-02T07:05:20;-3.60;99.90
18839;DHT22;9548;56.920;14.804;2023-03-02T07:07:48;-3.50;99.90
18839;DHT22;9548;56.920;14.804;2023-03-02T07:10:15;-3.40;99.90
18839;DHT22;9548;56.920;14.804;2023-03-02T07:12:42;-3.30;99.90
18839;DHT22;9548;56.920;14.804;2023-03-02T07:15:11;-3.10;99.90
18839;DHT22;9548;56.920;14.804;2023-03-02T07:17:39;-3.00;99.90
18839;DHT22;9548;56.920;14.804;2023-03-02T07:20:08;-2.80;99.90
18839;DHT22;9548;56.920;14.804;2023-03-02T07:22:36;-2.60;99.90
18839;DHT22;9548;56.920;14.804;2023-03-02T07:25:04;-2.50;99.90
18839;DHT22;9548;56.920;14.804;2023-03-02T07:27:31;-2.30;99.90
18839;DHT22;9548;56.920;14.804;2023-03-02T07:29:58;-2.10;99.90
18839;DHT22;9548;56.920;14.804;2023-03-02T07:32:26;-2.00;99.90
18839;DHT22;9548;56.920;14.804;2023-03-02T07:34:53;-1.80;99.90
18839;DHT22;9548;56.920;14.804;2023-03-02T07:37:20;-1.60;99.90
18839;DHT22;9548;56.920;14.804;2023-03-02T07:39:47;-1.40;99.90
18839;DHT22;9548;56.920;14.804;2023-03-02T07:42:15;-1.30;99.90
18839;DHT22;9548;56.920;14.804;2023-03-02T07:44:42;-1.20;99.90
18839;DHT22;9548;56.920;14.804;2023-03-02T07:47:09;-1.10;99.90
18839;DHT22;9548;56.920;14.804;2023-03-02T07:49:37;-0.90;99.90
18839;DHT22;9548;56.920;14.804;2023-03-02T07:52:04;-0.70;99.90
18839;DHT22;9548;56.920;14.804;2023-03-02T07:54:31;-0.60;99.90
18839;DHT22;9548;56.920;14.804;2023-03-02T07:56:58;-0.40;99.90
18839;DHT22;9548;56.920;14.804;2023-03-02T07:59:25;-0.30;99.90
18839;DHT22;9548;56.920;14.804;2023-03-02T08:01:53;-0.20;99.90
18839;DHT22;9548;56.920;14.804;2023-03-02T08:04:20;-0.10;99.90
18839;DHT22;9548;56.920;14.804;2023-03-02T08:06:48;0.10;99.90
18839;DHT22;9548;56.920;14.804;2023-03-02T08:09:16;0.30;99.90
18839;DHT22;9548;56.920;14.804;2023-03-02T08:11:43;0.40;99.90
18839;DHT22;9548;56.920;14.804;2023-03-02T08:14:10;0.50;99.90
18839;DHT22;9548;56.920;14.804;2023-03-02T08:16:38;0.70;99.90
18839;DHT22;9548;56.920;14.804;2023-03-02T08:19:06;0.90;99.90
18839;DHT22;9548;56.920;14.804;2023-03-02T08:21:33;1.10;99.90
18839;DHT22;9548;56.920;14.804;2023-03-02T08:24:02;1.30;99.90
18839;DHT22;9548;56.920;14.804;2023-03-02T08:26:29;1.40;99.90
18839;DHT22;9548;56.920;14.804;2023-03-02T08:28:56;1.60;99.90
18839;DHT22;9548;56.920;14.804;2023-03-02T08:31:23;1.70;99.90
18839;DHT22;9548;56.920;14.804;2023-03-02T08:33:50;1.90;99.90
18839;DHT22;9548;56.920;14.804;2023-03-02T08:36:18;2.10;99.90
18839;DHT22;9548;56.920;14.804;2023-03-02T08:38:46;2.30;99.90
18839;DHT22;9548;56.920;14.804;2023-03-02T08:41:16;2.40;99.90
18839;DHT22;9548;56.920;14.804;2023-03-02T08:43:43;2.60;99.90
18839;DHT22;9548;56.920;14.804;2023-03-02T08:46:12;2.80;99.90
18839;DHT22;9548;56.920;14.804;2023-03-02T08:48:39;2.90;99.90
18839;DHT22;9548;56.920;14.804;2023-03-02T08:51:08;3.10;99.90
18839;DHT22;9548;56.920;14.804;2023-03-02T08:53:37;3.30;99.90
18839;DHT22;9548;56.920;14.804;2023-03-02T08:56:12;3.40;99.90
18839;DHT22;9548;56.920;14.804;2023-03-02T08:58:41;3.60;99.90
18839;DHT22;9548;56.920;14.804;2023-03-02T09:01:12;3.80;99.90
18839;DHT22;9548;56.920;14.804;2023-03-02T09:03:40;4.00;99.90
18839;DHT22;9548;56.920;14.804;2023-03-02T09:06:07;4.20;99.90
18839;DHT22;9548;56.920;14.804;2023-03-02T09:08:34;4.40;99.90
18839;DHT22;9548;56.920;14.804;2023-03-02T09:11:01;4.60;99.90
18839;DHT22;9548;56.920;14.804;2023-03-02T09:13:28;4.80;99.90
18839;DHT22;9548;56.920;14.804;2023-03-02T09:15:56;5.00;99.90
18839;DHT22;9548;56.920;14.804;2023-03-02T09:18:23;5.20;99.90
18839;DHT22;9548;56.920;14.804;2023-03-02T09:20:50;5.40;99.90
18839;DHT22;9548;56.920;14.804;2023-03-02T09:23:17;5.50;99.90
18839;DHT22;9548;56.920;14.804;2023-03-02T09:25:44;5.80;99.90
18839;DHT22;9548;56.920;14.804;2023-03-02T09:28:12;6.10;99.90
18839;DHT22;9548;56.920;14.804;2023-03-02T09:30:39;6.40;99.90
18839;DHT22;9548;56.920;14.804;2023-03-02T09:33:08;6.60;99.90
18839;DHT22;9548;56.920;14.804;2023-03-02T09:35:37;6.80;99.90
18839;DHT22;9548;56.920;14.804;2023-03-02T09:38:04;7.10;99.90
18839;DHT22;9548;56.920;14.804;2023-03-02T09:40:32;6.90;99.90
18839;DHT22;9548;56.920;14.804;2023-03-02T09:43:22;6.80;99.90
18839;DHT22;9548;56.920;14.804;2023-03-02T09:45:57;6.90;99.90
18839;DHT22;9548;56.920;14.804;2023-03-02T09:48:38;7.00;99.90
18839;DHT22;9548;56.920;14.804;2023-03-02T09:51:19;7.00;99.90
18839;DHT22;9548;56.920;14.804;2023-03-02T09:53:54;7.20;99.90
18839;DHT22;9548;56.920;14.804;2023-03-02T09:56:23;7.40;99.90
18839;DHT22;9548;56.920;14.804;2023-03-02T09:58:54;7.40;99.90
18839;DHT22;9548;56.920;14.804;2023-03-02T10:01:31;7.40;99.90
18839;DHT22;9548;56.920;14.804;2023-03-02T10:04:10;7.60;99.90
18839;DHT22;9548;56.920;14.804;2023-03-02T10:06:38;7.80;99.90
18839;DHT22;9548;56.920;14.804;2023-03-02T10:09:07;8.00;99.90
18839;DHT22;9548;56.920;14.804;2023-03-02T10:11:42;8.30;99.90
18839;DHT22;9548;56.920;14.804;2023-03-02T10:14:18;8.50;99.90
18839;DHT22;9548;56.920;14.804;2023-03-02T10:16:48;8.50;99.90
18839;DHT22;9548;56.920;14.804;2023-03-02T10:19:23;8.70;99.90
18839;DHT22;9548;56.920;14.804;2023-03-02T10:21:56;9.10;99.90
18839;DHT22;9548;56.920;14.804;2023-03-02T10:24:29;9.20;99.90
18839;DHT22;9548;56.920;14.804;2023-03-02T10:27:07;9.50;99.90
18839;DHT22;9548;56.920;14.804;2023-03-02T10:29:44;9.90;99.90
18839;DHT22;9548;56.920;14.804;2023-03-02T10:32:18;10.50;99.90
18839;DHT22;9548;56.920;14.804;2023-03-02T10:34:47;11.30;99.90
18839;DHT22;9548;56.920;14.804;2023-03-02T10:37:17;11.80;99.90
18839;DHT22;9548;56.920;14.804;2023-03-02T10:39:46;12.90;99.90
18839;DHT22;9548;56.920;14.804;2023-03-02T10:42:15;13.80;99.90
18839;DHT22;9548;56.920;14.804;2023-03-02T10:44:47;14.50;99.90
18839;DHT22;9548;56.920;14.804;2023-03-02T10:47:20;15.50;99.90
18839;DHT22;9548;56.920;14.804;2023-03-02T10:49:50;16.30;98.10
18839;DHT22;9548;56.920;14.804;2023-03-02T10:52:19;16.50;96.80
18839;DHT22;9548;56.920;14.804;2023-03-02T10:54:47;16.40;95.80
18839;DHT22;9548;56.920;14.804;2023-03-02T10:57:28;16.90;95.80
18839;DHT22;9548;56.920;14.804;2023-03-02T11:00:00;18.10;94.10
18839;DHT22;9548;56.920;14.804;2023-03-02T11:02:28;18.30;92.70
18839;DHT22;9548;56.920;14.804;2023-03-02T11:05:29;18.30;92.30
18839;DHT22;9548;56.920;14.804;2023-03-02T11:07:57;18.60;91.50
18839;DHT22;9548;56.920;14.804;2023-03-02T11:10:27;19.50;90.30
18839;DHT22;9548;56.920;14.804;2023-03-02T11:12:57;19.70;88.20
18839;DHT22;9548;56.920;14.804;2023-03-02T11:15:33;19.50;88.20
18839;DHT22;9548;56.920;14.804;2023-03-02T11:18:05;20.50;85.50
18839;DHT22;9548;56.920;14.804;2023-03-02T11:20:37;20.40;84.50
18839;DHT22;9548;56.920;14.804;2023-03-02T11:23:13;21.00;82.80
18839;DHT22;9548;56.920;14.804;2023-03-02T11:25:45;21.80;79.20
18839;DHT22;9548;56.920;14.804;2023-03-02T11:28:21;22.80;77.40
18839;DHT22;9548;56.920;14.804;2023-03-02T11:30:52;21.30;76.20
18839;DHT22;9548;56.920;14.804;2023-03-02T11:33:25;21.60;75.80
18839;DHT22;9548;56.920;14.804;2023-03-02T11:35:56;22.80;74.10
18839;DHT22;9548;56.920;14.804;2023-03-02T11:38:27;22.30;71.90
18839;DHT22;9548;56.920;14.804;2023-03-02T11:40:58;21.40;74.10
18839;DHT22;9548;56.920;14.804;2023-03-02T11:43:27;22.60;73.10
18839;DHT22;9548;56.920;14.804;2023-03-02T11:45:57;23.40;70.60
18839;DHT22;9548;56.920;14.804;2023-03-02T11:48:28;24.70;68.00
18839;DHT22;9548;56.920;14.804;2023-03-02T11:51:00;23.70;66.20
18839;DHT22;9548;56.920;14.804;2023-03-02T11:53:30;23.00;67.00
18839;DHT22;9548;56.920;14.804;2023-03-02T11:55:59;22.70;66.90
18839;DHT22;9548;56.920;14.804;2023-03-02T11:58:27;23.10;67.30
18839;DHT22;9548;56.920;14.804;2023-03-02T12:00:56;21.20;67.30
18839;DHT22;9548;56.920;14.804;2023-03-02T12:03:36;21.70;68.20
18839;DHT22;9548;56.920;14.804;2023-03-02T12:06:07;22.00;66.70
18839;DHT22;9548;56.920;14.804;2023-03-02T12:08:37;21.40;68.60
18839;DHT22;9548;56.920;14.804;2023-03-02T12:11:06;22.80;66.50
18839;DHT22;9548;56.920;14.804;2023-03-02T12:13:35;21.90;67.00
18839;DHT22;9548;56.920;14.804;2023-03-02T12:16:02;21.90;66.60
18839;DHT22;9548;56.920;14.804;2023-03-02T12:18:41;22.40;66.50
18839;DHT22;9548;56.920;14.804;2023-03-02T12:21:12;23.00;65.30
18839;DHT22;9548;56.920;14.804;2023-03-02T12:23:52;23.20;64.40
18839;DHT22;9548;56.920;14.804;2023-03-02T12:26:35;23.70;62.90
18839;DHT22;9548;56.920;14.804;2023-03-02T12:29:19;22.90;64.00
18839;DHT22;9548;56.920;14.804;2023-03-02T12:31:49;22.90;63.10
18839;DHT22;9548;56.920;14.804;2023-03-02T12:34:32;23.00;63.40
18839;DHT22;9548;56.920;14.804;2023-03-02T12:37:10;23.40;61.90
18839;DHT22;9548;56.920;14.804;2023-03-02T12:40:12;23.60;62.10
18839;DHT22;9548;56.920;14.804;2023-03-02T12:42:49;23.90;59.70
18839;DHT22;9548;56.920;14.804;2023-03-02T12:45:33;24.70;61.00
18839;DHT22;9548;56.920;14.804;2023-03-02T12:48:21;26.30;58.00
18839;DHT22;9548;56.920;14.804;2023-03-02T12:50:51;25.10;56.00
18839;DHT22;9548;56.920;14.804;2023-03-02T12:53:22;24.50;56.90
18839;DHT22;9548;56.920;14.804;2023-03-02T12:55:49;23.50;57.10
18839;DHT22;9548;56.920;14.804;2023-03-02T12:58:17;23.00;58.10
18839;DHT22;9548;56.920;14.804;2023-03-02T13:00:49;22.30;58.90
18839;DHT22;9548;56.920;14.804;2023-03-02T13:03:17;22.10;60.00
18839;DHT22;9548;56.920;14.804;2023-03-02T13:05:44;23.00;59.70
18839;DHT22;9548;56.920;14.804;2023-03-02T13:08:15;23.70;58.00
18839;DHT22;9548;56.920;14.804;2023-03-02T13:10:48;22.70;57.90
18839;DHT22;9548;56.920;14.804;2023-03-02T13:13:17;20.80;62.40
18839;DHT22;9548;56.920;14.804;2023-03-02T13:15:48;20.80;62.70
18839;DHT22;9548;56.920;14.804;2023-03-02T13:18:16;20.60;63.50
18839;DHT22;9548;56.920;14.804;2023-03-02T13:20:44;20.50;64.80
18839;DHT22;9548;56.920;14.804;2023-03-02T13:23:12;21.90;61.50
18839;DHT22;9548;56.920;14.804;2023-03-02T13:25:49;21.70;61.80
18839;DHT22;9548;56.920;14.804;2023-03-02T13:28:27;22.40;60.70
18839;DHT22;9548;56.920;14.804;2023-03-02T13:30:58;23.00;58.90
18839;DHT22;9548;56.920;14.804;2023-03-02T13:33:28;21.50;60.50
18839;DHT22;9548;56.920;14.804;2023-03-02T13:35:56;21.40;61.60
18839;DHT22;9548;56.920;14.804;2023-03-02T13:38:26;20.30;63.50
18839;DHT22;9548;56.920;14.804;2023-03-02T13:40:56;20.10;63.30
18839;DHT22;9548;56.920;14.804;2023-03-02T13:43:35;21.00;62.70
18839;DHT22;9548;56.920;14.804;2023-03-02T13:46:04;22.70;59.80
18839;DHT22;9548;56.920;14.804;2023-03-02T13:48:31;23.50;58.00
18839;DHT22;9548;56.920;14.804;2023-03-02T13:51:00;23.30;57.50
18839;DHT22;9548;56.920;14.804;2023-03-02T13:53:29;23.10;58.80
18839;DHT22;9548;56.920;14.804;2023-03-02T13:56:00;23.00;58.30
18839;DHT22;9548;56.920;14.804;2023-03-02T13:58:27;24.20;57.40
18839;DHT22;9548;56.920;14.804;2023-03-02T14:00:56;23.50;57.30
18839;DHT22;9548;56.920;14.804;2023-03-02T14:03:25;21.90;58.80
18839;DHT22;9548;56.920;14.804;2023-03-02T14:05:53;20.40;60.20
18839;DHT22;9548;56.920;14.804;2023-03-02T14:08:20;19.50;61.70
18839;DHT22;9548;56.920;14.804;2023-03-02T14:10:50;19.50;62.90
18839;DHT22;9548;56.920;14.804;2023-03-02T14:13:21;18.80;63.70
18839;DHT22;9548;56.920;14.804;2023-03-02T14:15:50;19.10;64.00
18839;DHT22;9548;56.920;14.804;2023-03-02T14:18:31;18.70;64.40
18839;DHT22;9548;56.920;14.804;2023-03-02T14:21:00;18.10;65.80
18839;DHT22;9548;56.920;14.804;2023-03-02T14:23:27;17.40;68.80
18839;DHT22;9548;56.920;14.804;2023-03-02T14:25:55;16.80;69.50
18839;DHT22;9548;56.920;14.804;2023-03-02T14:28:26;16.70;70.00
18839;DHT22;9548;56.920;14.804;2023-03-02T14:30:55;16.10;72.10
18839;DHT22;9548;56.920;14.804;2023-03-02T14:33:22;16.00;72.10
18839;DHT22;9548;56.920;14.804;2023-03-02T14:35:52;15.90;72.80
18839;DHT22;9548;56.920;14.804;2023-03-02T14:38:20;15.90;73.30
18839;DHT22;9548;56.920;14.804;2023-03-02T14:40:47;15.70;73.10
18839;DHT22;9548;56.920;14.804;2023-03-02T14:43:14;15.10;74.80
18839;DHT22;9548;56.920;14.804;2023-03-02T14:45:43;15.00;77.80
18839;DHT22;9548;56.920;14.804;2023-03-02T14:48:10;14.90;76.50
18839;DHT22;9548;56.920;14.804;2023-03-02T14:50:39;15.10;76.30
18839;DHT22;9548;56.920;14.804;2023-03-02T14:53:11;15.10;75.70
18839;DHT22;9548;56.920;14.804;2023-03-02T14:55:39;15.00;76.10
18839;DHT22;9548;56.920;14.804;2023-03-02T14:58:12;14.70;76.90
18839;DHT22;9548;56.920;14.804;2023-03-02T15:00:39;14.40;77.90
18839;DHT22;9548;56.920;14.804;2023-03-02T15:03:11;14.60;78.30
18839;DHT22;9548;56.920;14.804;2023-03-02T15:05:39;14.90;78.60
18839;DHT22;9548;56.920;14.804;2023-03-02T15:08:07;15.20;76.20
18839;DHT22;9548;56.920;14.804;2023-03-02T15:10:34;14.90;77.40
18839;DHT22;9548;56.920;14.804;2023-03-02T15:13:04;15.10;76.90
18839;DHT22;9548;56.920;14.804;2023-03-02T15:15:31;15.40;77.50
18839;DHT22;9548;56.920;14.804;2023-03-02T15:17:58;15.30;78.30
18839;DHT22;9548;56.920;14.804;2023-03-02T15:20:26;15.60;75.40
18839;DHT22;9548;56.920;14.804;2023-03-02T15:22:53;15.80;76.20
18839;DHT22;9548;56.920;14.804;2023-03-02T15:25:20;15.80;77.90
18839;DHT22;9548;56.920;14.804;2023-03-02T15:27:48;15.30;75.50
18839;DHT22;9548;56.920;14.804;2023-03-02T15:30:16;14.50;78.00
18839;DHT22;9548;56.920;14.804;2023-03-02T15:32:43;13.60;79.80
18839;DHT22;9548;56.920;14.804;2023-03-02T15:35:10;12.80;83.10
18839;DHT22;9548;56.920;14.804;2023-03-02T15:37:39;12.20;84.60
18839;DHT22;9548;56.920;14.804;2023-03-02T15:40:07;11.60;86.00
18839;DHT22;9548;56.920;14.804;2023-03-02T15:42:34;11.10;87.80
18839;DHT22;9548;56.920;14.804;2023-03-02T15:45:01;10.70;89.80